createdAt,value
2022-10-03T00:00:21.624Z,100.00
2022-10-03T00:03:06.739Z,100.00
2022-10-03T00:05:40.119Z,100.00
2022-10-03T00:08:44.694Z,100.00
2022-10-03T00:11:40.664Z,100.00
2022-10-03T00:14:28.596Z,100.00
2022-10-03T00:17:18.456Z,100.00
2022-10-03T00:20:10.141Z,100.00
2022-10-03T00:23:04.309Z,100.00
2022-10-03T00:26:25.301Z,100.00
2022-10-03T00:28:59.963Z,100.00
2022-10-03T00:31:47.291Z,100.00
2022-10-03T00:34:46.812Z,100.00
2022-10-03T00:37:25.351Z,100.00
2022-10-03T00:40:13.383Z,100.00
2022-10-03T00:43:17.006Z,100.00
2022-10-03T00:45:43.376Z,100.00
2022-10-03T00:48:39.266Z,100.00
2022-10-03T00:51:25.403Z,100.00
2022-10-03T00:54:16.678Z,100.00
2022-10-03T00:56:51.664Z,100.00
2022-10-03T00:59:49.998Z,100.00
2022-10-03T01:02:27.434Z,100.00
2022-10-03T01:05:06.005Z,100.00
2022-10-03T01:07:38.993Z,100.00
2022-10-03T01:10:14.197Z,100.00
2022-10-03T01:12:52.826Z,100.00
2022-10-03T01:15:24.595Z,100.00
2022-10-03T01:18:01.119Z,100.00
2022-10-03T01:20:40.650Z,100.00
2022-10-03T01:23:09.979Z,100.00
2022-10-03T01:25:53.082Z,100.00
2022-10-03T01:32:28.875Z,100.00
2022-10-03T01:35:27.405Z,100.00
2022-10-03T01:38:35.459Z,100.00
2022-10-03T01:41:20.645Z,100.00
2022-10-03T01:44:13.568Z,100.00
2022-10-03T01:46:58.953Z,100.00
2022-10-03T01:49:28.432Z,100.00
2022-10-03T01:52:45.634Z,100.00
2022-10-03T01:55:23.174Z,100.00
2022-10-03T01:58:01.052Z,100.00
2022-10-03T02:00:34.313Z,100.00
2022-10-03T02:03:28.583Z,100.00
2022-10-03T02:06:09.809Z,100.00
2022-10-03T02:09:18.335Z,100.00
2022-10-03T02:12:00.581Z,100.00
2022-10-03T02:14:39.681Z,100.00
2022-10-03T02:17:27.080Z,100.00
2022-10-03T02:20:25.534Z,100.00
2022-10-03T02:22:59.090Z,100.00
2022-10-03T02:25:51.446Z,100.00
2022-10-03T02:28:34.466Z,100.00
2022-10-03T02:31:36.177Z,100.00
2022-10-03T02:34:18.849Z,100.00
2022-10-03T02:37:05.012Z,100.00
2022-10-03T02:39:57.728Z,100.00
2022-10-03T02:43:01.710Z,100.00
2022-10-03T02:45:45.043Z,100.00
2022-10-03T02:48:49.258Z,100.00
2022-10-03T02:51:30.902Z,100.00
2022-10-03T02:54:21.238Z,100.00
2022-10-03T02:57:18.627Z,100.00
2022-10-03T03:00:06.365Z,100.00
2022-10-03T03:02:58.837Z,100.00
2022-10-03T03:05:41.389Z,100.00
2022-10-03T03:08:33.647Z,100.00
2022-10-03T03:11:08.980Z,100.00
2022-10-03T03:13:54.465Z,100.00
2022-10-03T03:16:33.473Z,100.00
2022-10-03T03:19:21.160Z,100.00
2022-10-03T03:21:56.885Z,100.00
2022-10-03T03:24:50.381Z,100.00
2022-10-03T03:27:39.768Z,100.00
2022-10-03T03:30:10.280Z,100.00
2022-10-03T03:32:56.363Z,100.00
2022-10-03T03:35:22.733Z,100.00
2022-10-03T03:38:09.788Z,100.00
2022-10-03T03:40:42.848Z,100.00
2022-10-03T03:43:12.267Z,100.00
2022-10-03T03:46:16.844Z,100.00
2022-10-03T03:48:59.880Z,100.00
2022-10-03T03:51:42.159Z,100.00
2022-10-03T03:54:34.348Z,100.00
2022-10-03T03:57:24.063Z,100.00
2022-10-03T04:00:22.934Z,100.00
2022-10-03T04:03:18.887Z,100.00
2022-10-03T04:06:05.818Z,100.00
2022-10-03T04:08:44.609Z,100.00
2022-10-03T04:11:18.320Z,100.00
2022-10-03T04:13:59.727Z,100.00
2022-10-03T04:16:54.711Z,100.00
2022-10-03T04:19:55.852Z,100.00
2022-10-03T04:22:35.010Z,100.00
2022-10-03T04:25:26.294Z,100.00
2022-10-03T04:28:04.843Z,100.00
2022-10-03T04:30:45.552Z,100.00
2022-10-03T04:33:32.630Z,100.00
2022-10-03T04:36:28.983Z,100.00
2022-10-03T04:39:06.876Z,100.00
2022-10-03T04:41:57.484Z,100.00
2022-10-03T04:45:07.391Z,100.00
2022-10-03T04:48:00.180Z,100.00
2022-10-03T04:50:33.786Z,100.00
2022-10-03T04:53:22.134Z,100.00
2022-10-03T04:56:13.854Z,100.00
2022-10-03T04:58:50.963Z,100.00
2022-10-03T05:01:55.049Z,100.00
2022-10-03T05:04:38.375Z,100.00
2022-10-03T05:07:43.614Z,100.00
2022-10-03T05:10:21.964Z,100.00
2022-10-03T05:13:05.432Z,100.00
2022-10-03T05:15:48.944Z,100.00
2022-10-03T05:18:29.918Z,100.00
2022-10-03T05:21:05.353Z,100.00
2022-10-03T05:23:50.471Z,100.00
2022-10-03T05:26:46.095Z,100.00
2022-10-03T05:29:40.274Z,100.00
2022-10-03T05:32:19.956Z,100.00
2022-10-03T05:35:15.664Z,100.00
2022-10-03T05:38:04.351Z,100.00
2022-10-03T05:40:35.230Z,100.00
2022-10-03T05:43:11.124Z,100.00
2022-10-03T05:46:02.242Z,100.00
2022-10-03T05:48:53.976Z,100.00
2022-10-03T05:51:42.491Z,100.00
2022-10-03T05:54:46.859Z,100.00
2022-10-03T05:57:49.507Z,100.00
2022-10-03T06:00:20.931Z,100.00
2022-10-03T06:03:06.103Z,100.00
2022-10-03T06:06:00.560Z,100.00
2022-10-03T06:08:55.702Z,100.00
2022-10-03T06:12:02.278Z,100.00
2022-10-03T06:14:40.517Z,100.00
2022-10-03T06:17:28.249Z,100.00
2022-10-03T06:20:39.885Z,100.00
2022-10-03T06:23:12.121Z,100.00
2022-10-03T06:26:03.774Z,100.00
2022-10-03T06:29:03.438Z,100.00
2022-10-03T06:31:55.901Z,100.00
2022-10-03T06:34:32.247Z,100.00
2022-10-03T06:37:32.198Z,100.00
2022-10-03T06:40:35.699Z,100.00
2022-10-03T06:43:22.017Z,100.00
2022-10-03T06:46:27.898Z,100.00
2022-10-03T06:49:32.180Z,100.00
2022-10-03T06:52:13.738Z,100.00
2022-10-03T06:55:04.470Z,100.00
2022-10-03T06:57:54.162Z,100.00
2022-10-03T07:00:24.426Z,100.00
2022-10-03T07:03:03.660Z,100.00
2022-10-03T07:05:58.303Z,100.00
2022-10-03T07:08:53.253Z,100.00
2022-10-03T07:11:40.009Z,100.00
2022-10-03T07:14:19.825Z,100.00
2022-10-03T07:17:17.339Z,100.00
2022-10-03T07:20:11.779Z,100.00
2022-10-03T07:22:54.759Z,100.00
2022-10-03T07:25:30.239Z,100.00
2022-10-03T07:28:24.711Z,100.00
2022-10-03T07:30:54.172Z,100.00
2022-10-03T07:33:39.167Z,100.00
2022-10-03T07:36:41.062Z,100.00
2022-10-03T07:39:36.190Z,100.00
2022-10-03T07:42:21.096Z,100.00
2022-10-03T07:44:56.383Z,100.00
2022-10-03T07:47:35.025Z,100.00
2022-10-03T07:50:20.223Z,100.00
2022-10-03T07:53:25.720Z,100.00
2022-10-03T07:56:07.228Z,100.00
2022-10-03T07:59:06.675Z,100.00
2022-10-03T08:01:54.569Z,100.00
2022-10-03T08:04:54.912Z,100.00
2022-10-03T08:07:43.597Z,100.00
2022-10-03T08:10:17.599Z,100.00
2022-10-03T08:13:21.528Z,100.00
2022-10-03T08:16:24.198Z,100.00
2022-10-03T08:19:26.807Z,100.00
2022-10-03T08:22:20.292Z,100.00
2022-10-03T08:25:19.065Z,100.00
2022-10-03T08:28:27.662Z,100.00
2022-10-03T08:31:36.384Z,100.00
2022-10-03T08:34:21.451Z,100.00
2022-10-03T08:37:09.620Z,100.00
2022-10-03T08:40:09.500Z,100.00
2022-10-03T08:42:52.935Z,100.00
2022-10-03T08:45:40.637Z,100.00
2022-10-03T08:48:08.710Z,100.00
2022-10-03T08:51:01.975Z,100.00
2022-10-03T08:53:48.148Z,100.00
2022-10-03T08:56:48.009Z,100.00
2022-10-03T08:59:45.637Z,100.00
2022-10-03T09:03:20.465Z,100.00
2022-10-03T09:06:24.401Z,100.00
2022-10-03T09:09:01.551Z,100.00
2022-10-03T09:11:46.038Z,100.00
2022-10-03T09:14:49.669Z,100.00
2022-10-03T09:17:22.175Z,100.00
2022-10-03T09:20:16.251Z,100.00
2022-10-03T09:22:59.587Z,100.00
2022-10-03T09:25:58.754Z,100.00
2022-10-03T09:28:28.285Z,100.00
2022-10-03T09:31:19.569Z,100.00
2022-10-03T09:33:58.012Z,100.00
2022-10-03T09:37:01.447Z,100.00
2022-10-03T09:39:39.928Z,100.00
2022-10-03T09:42:38.157Z,100.00
2022-10-03T09:45:45.946Z,100.00
2022-10-03T09:48:32.599Z,100.00
2022-10-03T09:51:26.940Z,100.00
2022-10-03T09:54:22.681Z,100.00
2022-10-03T09:57:16.118Z,100.00
2022-10-03T10:00:15.446Z,100.00
2022-10-03T10:03:00.113Z,100.00
2022-10-03T10:05:44.920Z,100.00
2022-10-03T10:08:53.204Z,100.00
2022-10-03T10:11:36.490Z,100.00
2022-10-03T10:14:25.437Z,100.00
2022-10-03T10:17:26.088Z,100.00
2022-10-03T10:20:11.563Z,100.00
2022-10-03T10:23:05.392Z,100.00
2022-10-03T10:26:15.358Z,100.00
2022-10-03T10:29:02.788Z,100.00
2022-10-03T10:32:19.150Z,100.00
2022-10-03T10:35:21.947Z,100.00
2022-10-03T10:38:15.635Z,99.45
2022-10-03T10:41:06.994Z,99.04
2022-10-03T10:43:58.136Z,99.83
2022-10-03T10:46:55.430Z,99.97
2022-10-03T10:49:57.199Z,100.00
2022-10-03T10:52:49.087Z,100.00
2022-10-03T10:55:35.385Z,100.00
2022-10-03T10:58:58.015Z,100.00
2022-10-03T11:02:03.244Z,100.00
2022-10-03T11:05:01.768Z,100.00
2022-10-03T11:08:04.135Z,100.00
2022-10-03T11:11:35.102Z,100.00
2022-10-03T11:14:24.329Z,100.00
2022-10-03T11:17:09.600Z,100.00
2022-10-03T11:20:03.612Z,100.00
2022-10-03T11:23:18.491Z,99.96
2022-10-03T11:26:12.902Z,98.56
2022-10-03T11:29:17.111Z,98.49
2022-10-03T11:31:52.563Z,100.00
2022-10-03T11:34:37.783Z,98.78
2022-10-03T11:37:10.371Z,97.41
2022-10-03T11:39:49.452Z,97.96
2022-10-03T11:42:28.329Z,99.30
2022-10-03T11:45:00.573Z,100.00
2022-10-03T11:47:39.179Z,100.00
2022-10-03T11:50:41.446Z,100.00
2022-10-03T11:53:38.673Z,100.00
2022-10-03T11:56:30.688Z,100.00
2022-10-03T11:59:26.769Z,99.89
2022-10-03T12:02:24.300Z,100.00
2022-10-03T12:05:17.941Z,100.00
2022-10-03T12:08:28.904Z,99.12
2022-10-03T12:10:58.471Z,99.82
2022-10-03T12:13:42.935Z,98.18
2022-10-03T12:16:25.849Z,98.73
2022-10-03T12:18:58.415Z,99.63
2022-10-03T12:21:42.878Z,98.49
2022-10-03T12:24:28.301Z,98.14
2022-10-03T12:26:57.677Z,99.00
2022-10-03T12:29:28.380Z,98.71
2022-10-03T12:32:17.083Z,100.00
2022-10-03T12:34:59.135Z,100.00
2022-10-03T12:38:06.668Z,100.00
2022-10-03T12:40:43.880Z,99.24
2022-10-03T12:43:28.299Z,99.25
2022-10-03T12:46:02.074Z,98.63
2022-10-03T12:48:42.890Z,96.99
2022-10-03T12:51:36.035Z,97.07
2022-10-03T12:54:30.359Z,93.65
2022-10-03T12:57:34.446Z,91.33
2022-10-03T13:00:09.775Z,90.95
2022-10-03T13:02:47.136Z,90.84
2022-10-03T13:05:56.141Z,90.71
2022-10-03T13:08:28.959Z,90.99
2022-10-03T13:11:04.529Z,90.61
2022-10-03T13:13:41.512Z,91.48
2022-10-03T13:16:30.115Z,91.75
2022-10-03T13:19:12.484Z,92.39
2022-10-03T13:22:03.467Z,93.03
2022-10-03T13:24:42.318Z,92.39
2022-10-03T13:27:30.421Z,91.91
2022-10-03T13:30:17.203Z,92.88
2022-10-03T13:32:57.814Z,92.90
2022-10-03T13:35:59.581Z,92.89
2022-10-03T13:38:51.379Z,93.19
2022-10-03T13:41:39.605Z,93.32
2022-10-03T13:44:32.487Z,94.81
2022-10-03T13:47:23.272Z,94.12
2022-10-03T13:49:58.742Z,93.04
2022-10-03T13:53:06.916Z,93.40
2022-10-03T13:55:42.272Z,93.11
2022-10-03T13:58:36.948Z,93.82
2022-10-03T14:01:28.098Z,95.11
2022-10-03T14:04:00.301Z,95.43
2022-10-03T14:06:37.983Z,97.11
2022-10-03T14:09:45.916Z,95.60
2022-10-03T14:12:38.249Z,95.07
2022-10-03T14:15:36.811Z,94.83
2022-10-03T14:18:16.378Z,95.46
2022-10-03T14:21:08.260Z,94.49
2022-10-03T14:23:54.219Z,94.56
2022-10-03T14:26:34.579Z,94.27
2022-10-03T14:29:12.133Z,95.91
2022-10-03T14:31:57.167Z,94.92
2022-10-03T14:34:54.938Z,94.51
2022-10-03T14:37:39.969Z,94.67
2022-10-03T14:40:18.335Z,94.45
2022-10-03T14:43:19.510Z,94.17
2022-10-03T14:45:50.298Z,93.77
2022-10-03T14:48:25.607Z,93.72
2022-10-03T14:50:55.764Z,94.31
2022-10-03T14:53:25.496Z,94.52
2022-10-03T14:55:51.832Z,94.98
2022-10-03T14:58:28.726Z,95.23
2022-10-03T15:01:04.555Z,94.01
2022-10-03T15:03:38.024Z,94.13
2022-10-03T15:06:10.335Z,94.65
2022-10-03T15:08:44.491Z,94.45
2022-10-03T15:11:14.895Z,94.44
2022-10-03T15:13:50.931Z,93.01
2022-10-03T15:16:21.357Z,94.22
2022-10-03T15:19:01.737Z,94.27
2022-10-03T15:21:31.201Z,93.51
2022-10-03T15:24:03.603Z,94.88
2022-10-03T15:26:34.604Z,96.15
2022-10-03T15:29:04.389Z,96.23
2022-10-03T15:31:41.051Z,96.18
2022-10-03T15:34:30.366Z,95.71
2022-10-03T15:37:07.973Z,95.36
2022-10-03T15:39:37.422Z,96.13
2022-10-03T15:42:09.864Z,96.43
2022-10-03T15:44:51.464Z,97.91
2022-10-03T15:47:27.337Z,99.53
2022-10-03T15:50:07.122Z,99.50
2022-10-03T15:52:40.774Z,100.00
2022-10-03T15:55:15.882Z,100.00
2022-10-03T15:57:52.197Z,100.00
2022-10-03T16:00:21.487Z,100.00
2022-10-03T16:02:54.240Z,100.00
2022-10-03T16:05:25.375Z,100.00
2022-10-03T16:07:54.412Z,100.00
2022-10-03T16:10:25.133Z,100.00
2022-10-03T16:12:59.366Z,100.00
2022-10-03T16:16:02.979Z,100.00
2022-10-03T16:18:50.725Z,100.00
2022-10-03T16:21:41.073Z,100.00
2022-10-03T16:24:32.717Z,100.00
2022-10-03T16:27:05.098Z,100.00
2022-10-03T16:29:37.196Z,100.00
2022-10-03T16:32:07.639Z,100.00
2022-10-03T16:34:36.886Z,100.00
2022-10-03T16:37:13.091Z,100.00
2022-10-03T16:39:43.119Z,100.00
2022-10-03T16:42:20.448Z,100.00
2022-10-03T16:44:51.636Z,100.00
2022-10-03T16:47:27.490Z,100.00
2022-10-03T16:50:15.569Z,100.00
2022-10-03T16:52:45.633Z,100.00
2022-10-03T16:55:23.165Z,100.00
2022-10-03T16:57:56.734Z,100.00
2022-10-03T17:00:44.187Z,100.00
2022-10-03T17:03:19.339Z,100.00
2022-10-03T17:05:48.340Z,100.00
2022-10-03T17:08:40.523Z,100.00
2022-10-03T17:11:08.255Z,100.00
2022-10-03T17:13:56.597Z,100.00
2022-10-03T17:16:44.984Z,100.00
2022-10-03T17:19:26.607Z,100.00
2022-10-03T17:21:56.805Z,100.00
2022-10-03T17:24:41.075Z,100.00
2022-10-03T17:27:17.387Z,100.00
2022-10-03T17:29:53.164Z,100.00
2022-10-03T17:32:28.812Z,100.00
2022-10-03T17:35:15.426Z,100.00
2022-10-03T17:37:47.439Z,100.00
2022-10-03T17:40:23.196Z,100.00
2022-10-03T17:42:55.395Z,100.00
2022-10-03T17:45:31.816Z,100.00
2022-10-03T17:48:12.037Z,100.00
2022-10-03T17:50:52.999Z,100.00
2022-10-03T17:53:22.979Z,100.00
2022-10-03T17:55:57.318Z,100.00
2022-10-03T17:58:26.281Z,100.00
2022-10-03T18:01:07.735Z,100.00
2022-10-03T18:03:53.241Z,100.00
2022-10-03T18:06:45.992Z,100.00
2022-10-03T18:09:15.336Z,100.00
2022-10-03T18:11:43.505Z,100.00
2022-10-03T18:14:23.061Z,100.00
2022-10-03T18:17:01.449Z,100.00
2022-10-03T18:19:39.753Z,100.00
2022-10-03T18:22:17.269Z,100.00
2022-10-03T18:24:52.880Z,100.00
2022-10-03T18:28:07.750Z,100.00
2022-10-03T18:30:58.816Z,100.00
2022-10-03T18:33:50.821Z,100.00
2022-10-03T18:36:39.400Z,100.00
2022-10-03T18:39:23.497Z,100.00
2022-10-03T18:41:55.097Z,100.00
2022-10-03T18:44:24.924Z,100.00
2022-10-03T18:47:07.261Z,100.00
2022-10-03T18:49:35.510Z,100.00
2022-10-03T18:52:23.777Z,100.00
2022-10-03T18:55:01.299Z,100.00
2022-10-03T18:57:47.644Z,100.00
2022-10-03T19:00:18.257Z,100.00
2022-10-03T19:02:56.637Z,100.00
2022-10-03T19:05:32.691Z,100.00
2022-10-03T19:07:58.999Z,100.00
2022-10-03T19:10:32.791Z,100.00
2022-10-03T19:13:05.869Z,100.00
2022-10-03T19:15:46.219Z,100.00
2022-10-03T19:18:15.520Z,100.00
2022-10-03T19:20:45.182Z,100.00
2022-10-03T19:23:13.869Z,100.00
2022-10-03T19:25:43.432Z,100.00
2022-10-03T19:28:19.283Z,100.00
2022-10-03T19:30:55.469Z,100.00
2022-10-03T19:33:26.288Z,100.00
2022-10-03T19:35:57.916Z,100.00
2022-10-03T19:38:40.058Z,100.00
2022-10-03T19:41:35.439Z,100.00
2022-10-03T19:44:13.930Z,100.00
2022-10-03T19:46:49.248Z,100.00
2022-10-03T19:49:25.451Z,100.00
2022-10-03T19:51:52.125Z,100.00
2022-10-03T19:54:34.948Z,100.00
2022-10-03T19:57:05.579Z,100.00
2022-10-03T19:59:48.407Z,100.00
2022-10-03T20:02:14.945Z,100.00
2022-10-03T20:04:41.612Z,100.00
2022-10-03T20:07:16.008Z,100.00
2022-10-03T20:09:56.182Z,100.00
2022-10-03T20:12:27.729Z,100.00
2022-10-03T20:15:00.899Z,100.00
2022-10-03T20:17:27.905Z,100.00
2022-10-03T20:19:57.964Z,100.00
2022-10-03T20:22:28.514Z,100.00
2022-10-03T20:24:55.507Z,100.00
2022-10-03T20:27:39.162Z,100.00
2022-10-03T20:30:24.304Z,100.00
2022-10-03T20:32:51.543Z,100.00
2022-10-03T20:35:26.900Z,100.00
2022-10-03T20:38:13.080Z,100.00
2022-10-03T20:40:55.816Z,100.00
2022-10-03T20:43:41.628Z,100.00
2022-10-03T20:46:16.251Z,100.00
2022-10-03T20:49:41.496Z,100.00
2022-10-03T20:52:16.798Z,100.00
2022-10-03T20:54:51.960Z,100.00
2022-10-03T20:57:26.584Z,100.00
2022-10-03T21:00:04.385Z,100.00
2022-10-03T21:02:56.695Z,100.00
2022-10-03T21:05:28.723Z,100.00
2022-10-03T21:08:01.739Z,100.00
2022-10-03T21:10:28.078Z,100.00
2022-10-03T21:13:04.913Z,100.00
2022-10-03T21:15:41.047Z,100.00
2022-10-03T21:18:18.674Z,100.00
2022-10-03T21:20:46.108Z,100.00
2022-10-03T21:23:24.861Z,100.00
2022-10-03T21:25:54.575Z,100.00
2022-10-03T21:28:23.128Z,100.00
2022-10-03T21:31:39.837Z,100.00
2022-10-03T21:34:25.921Z,100.00
2022-10-03T21:37:15.743Z,100.00
2022-10-03T21:40:11.259Z,100.00
2022-10-03T21:43:35.023Z,100.00
2022-10-03T21:46:07.452Z,100.00
2022-10-03T21:49:11.069Z,100.00
2022-10-03T21:52:01.070Z,100.00
2022-10-03T21:55:02.648Z,100.00
2022-10-03T21:58:07.700Z,100.00
2022-10-03T22:01:03.187Z,100.00
2022-10-03T22:03:39.962Z,100.00
2022-10-03T22:06:17.189Z,100.00
2022-10-03T22:08:46.834Z,100.00
2022-10-03T22:11:28.947Z,100.00
2022-10-03T22:14:16.791Z,100.00
2022-10-03T22:17:14.691Z,100.00
2022-10-03T22:19:49.713Z,100.00
2022-10-03T22:22:28.423Z,100.00
2022-10-03T22:25:03.665Z,100.00
2022-10-03T22:27:48.606Z,100.00
2022-10-03T22:30:20.971Z,99.89
2022-10-03T22:33:04.053Z,99.81
2022-10-03T22:35:59.555Z,100.00
2022-10-03T22:38:36.019Z,100.00
2022-10-03T22:41:09.719Z,99.91
2022-10-03T22:43:37.765Z,99.81
2022-10-03T22:46:07.041Z,99.72
2022-10-03T22:48:39.719Z,99.38
2022-10-03T22:51:11.253Z,99.12
2022-10-03T22:53:41.982Z,99.58
2022-10-03T22:56:39.233Z,99.79
2022-10-03T22:59:13.242Z,99.40
2022-10-03T23:01:45.357Z,99.35
2022-10-03T23:04:22.082Z,99.36
2022-10-03T23:07:39.088Z,98.78
2022-10-03T23:10:38.564Z,98.87
2022-10-03T23:13:34.643Z,98.35
2022-10-03T23:16:29.976Z,98.83
2022-10-03T23:19:16.773Z,98.49
2022-10-03T23:21:45.257Z,98.48
2022-10-03T23:24:21.856Z,98.64
2022-10-03T23:27:15.974Z,98.13
2022-10-03T23:29:43.413Z,98.49
2022-10-03T23:32:11.107Z,97.84
2022-10-03T23:34:37.428Z,98.20
2022-10-03T23:37:16.284Z,97.18
2022-10-03T23:40:11.703Z,98.41
2022-10-03T23:42:43.330Z,98.03
2022-10-03T23:45:11.723Z,97.68
2022-10-03T23:47:46.329Z,98.45
2022-10-03T23:50:22.014Z,97.97
2022-10-03T23:52:57.366Z,97.86
2022-10-03T23:55:36.475Z,97.78
2022-10-03T23:58:17.227Z,97.33
